createdAt,value
2023-02-09T00:00:49.817Z,6.70
2023-02-09T00:05:02.252Z,16.38
2023-02-09T00:09:14.879Z,4.90
2023-02-09T00:13:28.149Z,19.13
2023-02-09T00:17:40.494Z,7.22
2023-02-09T00:21:52.961Z,7.18
2023-02-09T00:26:11.760Z,8.50
2023-02-09T00:30:27.753Z,8.25
2023-02-09T00:34:40.096Z,7.95
2023-02-09T00:38:52.574Z,23.80
2023-02-09T00:43:05.423Z,8.88
2023-02-09T00:47:17.880Z,25.13
2023-02-09T00:51:30.734Z,24.70
2023-02-09T00:55:43.057Z,7.82
2023-02-09T00:59:55.489Z,7.75
2023-02-09T01:04:08.247Z,8.15
2023-02-09T01:08:20.717Z,9.73
2023-02-09T01:12:33.144Z,11.27
2023-02-09T01:16:45.686Z,8.80
2023-02-09T01:20:58.397Z,9.18
2023-02-09T01:25:10.863Z,10.95
2023-02-09T01:29:23.411Z,10.00
2023-02-09T01:33:35.650Z,8.43
2023-02-09T01:37:47.996Z,7.03
2023-02-09T01:42:00.617Z,8.90
2023-02-09T01:46:12.944Z,30.60
2023-02-09T01:50:27.089Z,10.32
2023-02-09T01:54:47.247Z,9.45
2023-02-09T01:59:00.251Z,10.48
2023-02-09T02:03:16.925Z,7.90
2023-02-09T02:07:41.273Z,2.72
2023-02-09T02:11:53.891Z,1.83
2023-02-09T02:16:20.009Z,5.22
2023-02-09T02:20:54.492Z,4.80
2023-02-09T02:25:28.257Z,6.40
2023-02-09T02:30:04.138Z,6.97
2023-02-09T02:34:21.928Z,6.82
2023-02-09T02:38:37.836Z,5.93
2023-02-09T02:43:00.523Z,5.63
2023-02-09T02:47:19.619Z,7.68
2023-02-09T02:51:40.432Z,5.47
2023-02-09T02:55:55.925Z,4.72
2023-02-09T03:00:17.071Z,5.28
2023-02-09T03:04:31.666Z,3.22
2023-02-09T03:09:02.136Z,4.65
2023-02-09T03:13:36.814Z,3.53
2023-02-09T03:17:54.641Z,2.95
2023-02-09T03:22:19.340Z,2.28
2023-02-09T03:26:40.237Z,2.45
2023-02-09T03:30:54.172Z,2.72
2023-02-09T03:35:07.472Z,2.50
2023-02-09T03:39:20.291Z,2.95
2023-02-09T03:43:51.203Z,6.22
2023-02-09T03:48:05.461Z,1.55
2023-02-09T03:52:18.105Z,3.60
2023-02-09T03:56:30.450Z,6.38
2023-02-09T04:00:43.159Z,2.63
2023-02-09T04:04:55.835Z,2.00
2023-02-09T04:09:09.527Z,6.80
2023-02-09T04:13:21.816Z,2.38
2023-02-09T04:17:34.144Z,2.97
2023-02-09T04:21:46.467Z,6.72
2023-02-09T04:25:58.806Z,1.55
2023-02-09T04:30:11.934Z,3.88
2023-02-09T04:34:24.962Z,2.17
2023-02-09T04:38:37.840Z,1.13
2023-02-09T04:42:50.224Z,5.80
2023-02-09T04:47:02.597Z,1.42
2023-02-09T04:51:15.433Z,5.10
2023-02-09T04:55:27.865Z,1.92
2023-02-09T04:59:41.816Z,2.78
2023-02-09T05:03:54.521Z,1.88
2023-02-09T05:08:07.155Z,3.03
2023-02-09T05:12:19.444Z,2.30
2023-02-09T05:16:31.889Z,2.28
2023-02-09T05:20:45.671Z,4.95
2023-02-09T05:24:58.548Z,1.95
2023-02-09T05:29:10.976Z,2.70
2023-02-09T05:33:29.299Z,3.58
2023-02-09T05:37:41.619Z,2.67
2023-02-09T05:42:12.874Z,2.85
2023-02-09T05:46:25.255Z,4.82
2023-02-09T05:50:37.619Z,4.90
2023-02-09T05:54:52.430Z,1.52
2023-02-09T05:59:04.933Z,4.60
2023-02-09T06:03:17.367Z,3.20
2023-02-09T06:07:29.858Z,4.40
2023-02-09T06:11:42.263Z,2.03
2023-02-09T06:15:54.671Z,4.65
2023-02-09T06:20:07.630Z,8.95
2023-02-09T06:24:20.031Z,4.47
2023-02-09T06:28:32.401Z,9.73
2023-02-09T06:32:44.880Z,11.23
2023-02-09T06:36:57.331Z,5.05
2023-02-09T06:41:09.867Z,13.90
2023-02-09T06:45:22.255Z,16.65
2023-02-09T06:49:34.598Z,6.18
2023-02-09T06:53:47.469Z,5.35
2023-02-09T06:58:00.213Z,6.03
2023-02-09T07:02:12.559Z,7.68
2023-02-09T07:06:25.838Z,6.90
2023-02-09T07:10:41.156Z,9.13
2023-02-09T07:14:53.630Z,9.95
2023-02-09T07:19:06.028Z,12.00
2023-02-09T07:23:18.714Z,10.13
2023-02-09T07:27:31.185Z,6.82
2023-02-09T07:31:43.946Z,25.65
2023-02-09T07:35:56.353Z,9.40
2023-02-09T07:40:09.553Z,9.52
2023-02-09T07:44:22.254Z,13.02
2023-02-09T07:48:36.084Z,16.13
2023-02-09T07:52:48.608Z,11.60
2023-02-09T07:57:01.101Z,15.07
2023-02-09T08:01:13.835Z,15.93
2023-02-09T08:05:35.583Z,16.92
2023-02-09T08:09:48.043Z,41.85
2023-02-09T08:14:05.116Z,38.00
2023-02-09T08:18:23.281Z,40.83
2023-02-09T08:22:41.795Z,40.00
2023-02-09T08:26:55.609Z,16.17
2023-02-09T08:31:09.448Z,17.45
2023-02-09T08:35:22.008Z,43.65
2023-02-09T08:39:34.362Z,43.17
2023-02-09T08:43:51.846Z,42.70
2023-02-09T08:48:06.713Z,40.58
2023-02-09T08:52:19.537Z,17.63
2023-02-09T08:56:31.857Z,12.73
2023-02-09T09:00:44.316Z,12.40
2023-02-09T09:04:56.678Z,13.48
2023-02-09T09:09:09.125Z,26.90
2023-02-09T09:13:22.116Z,27.58
2023-02-09T09:17:35.850Z,27.85
2023-02-09T09:21:48.304Z,30.38
2023-02-09T09:26:04.685Z,27.88
2023-02-09T09:30:17.202Z,23.90
2023-02-09T09:34:30.735Z,24.63
2023-02-09T09:38:43.452Z,22.30
2023-02-09T09:43:02.135Z,19.48
2023-02-09T09:47:20.434Z,16.50
2023-02-09T09:51:39.861Z,15.93
2023-02-09T09:56:00.675Z,14.18
2023-02-09T10:00:28.720Z,15.18
2023-02-09T10:04:41.100Z,13.43
2023-02-09T10:09:06.684Z,11.93
2023-02-09T10:13:40.086Z,11.57
2023-02-09T10:17:52.755Z,11.43
2023-02-09T10:22:05.370Z,11.60
2023-02-09T10:26:23.258Z,10.98
2023-02-09T10:30:38.132Z,11.18
2023-02-09T10:34:58.280Z,11.30
2023-02-09T10:43:35.608Z,10.35
2023-02-09T10:48:13.837Z,5.80
2023-02-09T10:52:31.119Z,4.65
2023-02-09T10:56:47.027Z,4.32
2023-02-09T11:01:17.458Z,4.65
2023-02-09T11:09:49.685Z,6.50
2023-02-09T11:14:03.792Z,3.97
2023-02-09T11:18:25.782Z,4.90
2023-02-09T11:22:56.761Z,3.22
2023-02-09T11:27:26.455Z,3.50
2023-02-09T11:31:48.892Z,3.88
2023-02-09T11:36:30.073Z,3.67
2023-02-09T11:40:51.154Z,4.55
2023-02-09T11:45:11.482Z,5.78
2023-02-09T11:49:28.543Z,3.67
2023-02-09T11:53:50.025Z,3.83
2023-02-09T11:58:20.596Z,3.60
2023-02-09T12:02:52.312Z,4.32
2023-02-09T12:07:32.919Z,4.22
2023-02-09T12:11:54.202Z,4.40
2023-02-09T12:16:17.976Z,3.83
2023-02-09T12:20:43.920Z,4.45
2023-02-09T12:25:28.347Z,4.45
2023-02-09T12:29:41.739Z,3.70
2023-02-09T12:34:00.200Z,3.50
2023-02-09T12:38:19.532Z,3.88
2023-02-09T12:42:41.567Z,3.60
2023-02-09T12:46:59.216Z,4.45
2023-02-09T12:51:43.708Z,4.57
2023-02-09T12:56:10.772Z,3.47
2023-02-09T13:00:31.542Z,5.20
2023-02-09T13:05:12.964Z,4.00
2023-02-09T13:09:39.456Z,3.60
2023-02-09T13:14:03.583Z,4.15
2023-02-09T13:18:44.716Z,4.22
2023-02-09T13:23:10.148Z,3.28
2023-02-09T13:27:24.787Z,5.45
2023-02-09T13:31:50.424Z,4.80
2023-02-09T13:36:23.898Z,4.40
2023-02-09T13:40:37.124Z,3.47
2023-02-09T13:44:55.799Z,3.70
2023-02-09T13:49:19.000Z,4.53
2023-02-09T13:53:32.115Z,4.20
2023-02-09T13:57:47.567Z,4.75
2023-02-09T14:01:59.953Z,4.63
2023-02-09T14:06:25.194Z,3.60
2023-02-09T14:10:43.641Z,4.13
2023-02-09T14:15:16.438Z,4.03
2023-02-09T14:19:33.098Z,4.10
2023-02-09T14:23:56.028Z,4.15
2023-02-09T14:28:15.975Z,5.30
2023-02-09T14:32:36.053Z,4.85
2023-02-09T14:41:31.897Z,4.97
2023-02-09T14:45:58.124Z,4.13
2023-02-09T14:50:19.093Z,3.75
2023-02-09T14:54:34.363Z,4.00
2023-02-09T14:58:46.715Z,4.45
2023-02-09T15:03:00.365Z,4.47
2023-02-09T15:07:18.627Z,5.13
2023-02-09T15:11:49.726Z,6.05
2023-02-09T15:16:02.249Z,6.32
2023-02-09T15:20:16.954Z,6.10
2023-02-09T15:24:29.206Z,13.13
2023-02-09T15:28:41.568Z,13.73
2023-02-09T15:32:54.012Z,15.65
2023-02-09T15:38:04.991Z,13.30
2023-02-09T15:43:36.443Z,16.35
2023-02-09T15:48:47.386Z,18.77
2023-02-09T15:54:00.735Z,17.73
2023-02-09T15:58:18.986Z,17.45
2023-02-09T16:02:32.546Z,28.00
2023-02-09T16:06:55.132Z,28.25
2023-02-09T16:11:18.480Z,16.23
2023-02-09T16:15:30.821Z,20.02
2023-02-09T16:19:45.456Z,12.77
2023-02-09T16:24:00.963Z,11.10
2023-02-09T16:28:14.541Z,14.90
2023-02-09T16:32:28.920Z,13.88
2023-02-09T16:36:42.057Z,12.82
2023-02-09T16:40:55.832Z,11.50
2023-02-09T16:45:12.951Z,7.40
2023-02-09T16:49:28.263Z,6.82
2023-02-09T16:53:51.788Z,8.50
2023-02-09T16:58:06.040Z,9.55
2023-02-09T17:02:38.708Z,7.47
2023-02-09T17:06:53.111Z,8.95
2023-02-09T17:11:05.796Z,8.40
2023-02-09T17:15:29.630Z,8.27
2023-02-09T17:19:47.919Z,10.55
2023-02-09T17:24:00.698Z,10.95
2023-02-09T17:28:13.401Z,7.38
2023-02-09T17:32:25.793Z,7.63
2023-02-09T17:36:39.999Z,5.75
2023-02-09T17:40:54.287Z,7.05
2023-02-09T17:45:22.020Z,7.78
2023-02-09T17:49:35.196Z,9.20
2023-02-09T17:53:48.997Z,10.30
2023-02-09T17:58:01.549Z,41.53
2023-02-09T18:02:20.003Z,51.00
2023-02-09T18:06:37.539Z,65.55
2023-02-09T18:10:50.057Z,73.57
2023-02-09T18:15:04.560Z,73.22
2023-02-09T18:19:17.480Z,59.55
2023-02-09T18:23:29.924Z,60.80
2023-02-09T18:27:42.414Z,68.03
2023-02-09T18:32:01.409Z,25.42
2023-02-09T18:36:15.377Z,54.50
2023-02-09T18:40:28.730Z,17.52
2023-02-09T18:44:41.457Z,52.55
2023-02-09T18:48:55.302Z,55.83
2023-02-09T18:53:08.168Z,52.22
2023-02-09T18:57:20.586Z,55.47
2023-02-09T19:01:33.000Z,22.23
2023-02-09T19:05:45.674Z,23.60
2023-02-09T19:09:58.437Z,60.70
2023-02-09T19:14:29.796Z,61.75
2023-02-09T19:18:42.122Z,23.98
2023-02-09T19:22:54.848Z,27.67
2023-02-09T19:27:09.523Z,73.75
2023-02-09T19:31:21.938Z,72.40
2023-02-09T19:35:34.467Z,29.80
2023-02-09T19:40:00.664Z,27.15
2023-02-09T19:44:13.649Z,27.92
2023-02-09T19:48:26.109Z,76.88
2023-02-09T19:52:40.956Z,69.10
2023-02-09T19:56:53.417Z,21.75
2023-02-09T20:01:09.832Z,47.75
2023-02-09T20:05:22.220Z,20.98
2023-02-09T20:09:34.998Z,19.17
2023-02-09T20:13:52.057Z,20.85
2023-02-09T20:18:04.914Z,23.70
2023-02-09T20:22:17.382Z,25.92
2023-02-09T20:26:30.471Z,29.45
2023-02-09T20:30:45.720Z,27.85
2023-02-09T20:34:58.398Z,76.43
2023-02-09T20:39:16.268Z,28.67
2023-02-09T20:43:47.377Z,22.45
2023-02-09T20:48:00.198Z,24.33
2023-02-09T20:52:13.457Z,26.65
2023-02-09T20:56:26.910Z,27.50
2023-02-09T21:00:43.241Z,24.95
2023-02-09T21:04:57.058Z,25.38
2023-02-09T21:09:14.272Z,70.65
2023-02-09T21:13:26.644Z,73.07
2023-02-09T21:17:45.623Z,28.92
2023-02-09T21:21:58.130Z,72.22
2023-02-09T21:26:13.586Z,33.13
2023-02-09T21:30:27.099Z,76.90
2023-02-09T21:34:39.582Z,27.90
2023-02-09T21:38:53.307Z,76.88
2023-02-09T21:43:05.610Z,30.15
2023-02-09T21:47:18.164Z,25.13
2023-02-09T21:51:30.542Z,37.30
2023-02-09T21:55:42.981Z,91.90
2023-02-09T21:59:55.694Z,29.40
2023-02-09T22:04:08.111Z,60.10
2023-02-09T22:08:20.479Z,77.68
2023-02-09T22:12:34.441Z,28.35
2023-02-09T22:16:47.122Z,37.05
2023-02-09T22:20:59.411Z,80.45
2023-02-09T22:25:11.900Z,82.63
2023-02-09T22:29:25.603Z,25.38
2023-02-09T22:33:38.988Z,32.25
2023-02-09T22:37:51.413Z,24.58
2023-02-09T22:42:03.910Z,28.88
2023-02-09T22:46:16.822Z,71.63
2023-02-09T22:50:29.157Z,70.80
2023-02-09T22:54:41.597Z,69.85
2023-02-09T22:58:55.848Z,62.78
2023-02-09T23:03:08.223Z,63.30
2023-02-09T23:07:20.671Z,56.47
2023-02-09T23:11:33.228Z,54.00
2023-02-09T23:15:45.785Z,21.25
2023-02-09T23:19:58.350Z,46.85
2023-02-09T23:24:12.925Z,17.80
2023-02-09T23:28:25.631Z,17.95
2023-02-09T23:32:38.072Z,59.40
2023-02-09T23:36:50.729Z,59.25
2023-02-09T23:41:11.604Z,18.42
2023-02-09T23:45:24.185Z,18.92
2023-02-09T23:49:36.631Z,61.28
2023-02-09T23:53:49.158Z,21.67
2023-02-09T23:58:01.607Z,18.77
